sensor_id;sensor_type;location;lat;lon;timestamp;pressure;altitude;pressure_sealevel;temperature;humidity
32324;BME280;25666;44.350;9.222;2023-04-27T00:00:29;101597.72;;;10.86;100.00
32324;BME280;25666;44.350;9.222;2023-04-27T00:02:55;101603.06;;;11.00;100.00
32324;BME280;25666;44.350;9.222;2023-04-27T00:05:21;101602.53;;;11.15;100.00
32324;BME280;25666;44.350;9.222;2023-04-27T00:07:46;101594.34;;;11.10;100.00
32324;BME280;25666;44.350;9.222;2023-04-27T00:10:12;101595.22;;;10.93;100.00
32324;BME280;25666;44.350;9.222;2023-04-27T00:12:38;101590.81;;;10.92;100.00
32324;BME280;25666;44.350;9.222;2023-04-27T00:15:04;101590.66;;;10.89;100.00
32324;BME280;25666;44.350;9.222;2023-04-27T00:17:29;101596.88;;;10.86;100.00
32324;BME280;25666;44.350;9.222;2023-04-27T00:19:55;101590.03;;;10.74;100.00
32324;BME280;25666;44.350;9.222;2023-04-27T00:22:20;101588.88;;;10.75;100.00
32324;BME280;25666;44.350;9.222;2023-04-27T00:24:46;101586.09;;;10.75;100.00
32324;BME280;25666;44.350;9.222;2023-04-27T00:27:12;101581.97;;;10.82;100.00
32324;BME280;25666;44.350;9.222;2023-04-27T00:29:40;101575.41;;;10.95;100.00
32324;BME280;25666;44.350;9.222;2023-04-27T00:32:10;101570.19;;;10.85;100.00
32324;BME280;25666;44.350;9.222;2023-04-27T00:34:36;101577.41;;;10.77;100.00
32324;BME280;25666;44.350;9.222;2023-04-27T00:37:02;101575.59;;;10.81;100.00
32324;BME280;25666;44.350;9.222;2023-04-27T00:39:27;101572.34;;;10.70;100.00
32324;BME280;25666;44.350;9.222;2023-04-27T00:41:53;101571.06;;;10.68;100.00
32324;BME280;25666;44.350;9.222;2023-04-27T00:44:26;101568.28;;;10.68;100.00
32324;BME280;25666;44.350;9.222;2023-04-27T00:46:52;101569.25;;;10.63;100.00
32324;BME280;25666;44.350;9.222;2023-04-27T00:49:22;101564.00;;;10.62;100.00
32324;BME280;25666;44.350;9.222;2023-04-27T00:51:48;101566.16;;;10.56;100.00
32324;BME280;25666;44.350;9.222;2023-04-27T00:54:19;101566.31;;;10.60;100.00
32324;BME280;25666;44.350;9.222;2023-04-27T00:56:49;101572.19;;;10.67;100.00
32324;BME280;25666;44.350;9.222;2023-04-27T00:59:18;101572.88;;;10.64;100.00
32324;BME280;25666;44.350;9.222;2023-04-27T01:01:52;101567.28;;;10.64;100.00
32324;BME280;25666;44.350;9.222;2023-04-27T01:04:19;101564.16;;;10.65;100.00
32324;BME280;25666;44.350;9.222;2023-04-27T01:06:45;101563.03;;;10.66;100.00
32324;BME280;25666;44.350;9.222;2023-04-27T01:09:11;101558.31;;;10.58;100.00
32324;BME280;25666;44.350;9.222;2023-04-27T01:11:36;101563.38;;;10.65;100.00
32324;BME280;25666;44.350;9.222;2023-04-27T01:14:03;101559.91;;;10.59;100.00
32324;BME280;25666;44.350;9.222;2023-04-27T01:16:30;101562.53;;;10.64;100.00
32324;BME280;25666;44.350;9.222;2023-04-27T01:18:56;101562.84;;;10.71;100.00
32324;BME280;25666;44.350;9.222;2023-04-27T01:21:22;101566.16;;;10.56;100.00
32324;BME280;25666;44.350;9.222;2023-04-27T01:23:48;101568.31;;;10.42;100.00
32324;BME280;25666;44.350;9.222;2023-04-27T01:26:13;101566.84;;;10.45;100.00
32324;BME280;25666;44.350;9.222;2023-04-27T01:28:41;101572.22;;;10.41;100.00
32324;BME280;25666;44.350;9.222;2023-04-27T01:31:07;101568.47;;;10.37;100.00
32324;BME280;25666;44.350;9.222;2023-04-27T01:33:32;101572.09;;;10.29;100.00
32324;BME280;25666;44.350;9.222;2023-04-27T01:35:58;101565.38;;;10.30;100.00
32324;BME280;25666;44.350;9.222;2023-04-27T01:38:26;101577.16;;;10.36;100.00
32324;BME280;25666;44.350;9.222;2023-04-27T01:40:52;101573.06;;;10.33;100.00
32324;BME280;25666;44.350;9.222;2023-04-27T01:43:20;101572.56;;;10.31;100.00
32324;BME280;25666;44.350;9.222;2023-04-27T01:45:45;101568.16;;;10.39;100.00
32324;BME280;25666;44.350;9.222;2023-04-27T01:48:11;101569.94;;;10.43;100.00
32324;BME280;25666;44.350;9.222;2023-04-27T01:50:36;101567.00;;;10.40;100.00
32324;BME280;25666;44.350;9.222;2023-04-27T01:53:01;101564.72;;;10.42;100.00
32324;BME280;25666;44.350;9.222;2023-04-27T01:55:27;101570.94;;;10.39;100.00
32324;BME280;25666;44.350;9.222;2023-04-27T01:57:53;101573.38;;;10.32;100.00
32324;BME280;25666;44.350;9.222;2023-04-27T02:00:18;101575.19;;;10.28;100.00
32324;BME280;25666;44.350;9.222;2023-04-27T02:02:47;101583.88;;;10.17;100.00
32324;BME280;25666;44.350;9.222;2023-04-27T02:05:15;101585.81;;;10.08;100.00
32324;BME280;25666;44.350;9.222;2023-04-27T02:07:41;101590.88;;;9.98;100.00
32324;BME280;25666;44.350;9.222;2023-04-27T02:10:06;101589.88;;;10.02;100.00
32324;BME280;25666;44.350;9.222;2023-04-27T02:12:32;101590.56;;;10.08;100.00
32324;BME280;25666;44.350;9.222;2023-04-27T02:14:58;101591.22;;;10.22;100.00
32324;BME280;25666;44.350;9.222;2023-04-27T02:17:23;101586.13;;;10.07;100.00
32324;BME280;25666;44.350;9.222;2023-04-27T02:19:49;101590.38;;;10.13;100.00
32324;BME280;25666;44.350;9.222;2023-04-27T02:22:14;101586.13;;;9.98;100.00
32324;BME280;25666;44.350;9.222;2023-04-27T02:24:40;101586.13;;;9.90;100.00
32324;BME280;25666;44.350;9.222;2023-04-27T02:27:06;101594.28;;;9.86;100.00
32324;BME280;25666;44.350;9.222;2023-04-27T02:29:32;101589.03;;;9.85;100.00
32324;BME280;25666;44.350;9.222;2023-04-27T02:31:57;101589.88;;;9.94;100.00
32324;BME280;25666;44.350;9.222;2023-04-27T02:34:22;101590.22;;;9.92;100.00
32324;BME280;25666;44.350;9.222;2023-04-27T02:36:48;101594.94;;;9.92;100.00
32324;BME280;25666;44.350;9.222;2023-04-27T02:39:13;101594.59;;;9.93;100.00
32324;BME280;25666;44.350;9.222;2023-04-27T02:41:39;101590.53;;;9.91;100.00
32324;BME280;25666;44.350;9.222;2023-04-27T02:44:04;101595.94;;;9.96;100.00
32324;BME280;25666;44.350;9.222;2023-04-27T02:46:30;101584.16;;;9.99;100.00
32324;BME280;25666;44.350;9.222;2023-04-27T02:48:55;101593.47;;;10.03;100.00
32324;BME280;25666;44.350;9.222;2023-04-27T02:51:22;101596.25;;;10.03;100.00
32324;BME280;25666;44.350;9.222;2023-04-27T02:53:48;101594.16;;;10.08;100.00
32324;BME280;25666;44.350;9.222;2023-04-27T02:56:13;101606.41;;;9.99;100.00
32324;BME280;25666;44.350;9.222;2023-04-27T02:58:39;101604.44;;;9.91;100.00
32324;BME280;25666;44.350;9.222;2023-04-27T03:01:04;101599.03;;;9.86;100.00
32324;BME280;25666;44.350;9.222;2023-04-27T03:03:30;101604.25;;;9.79;100.00
32324;BME280;25666;44.350;9.222;2023-04-27T03:05:55;101600.81;;;9.90;100.00
32324;BME280;25666;44.350;9.222;2023-04-27T03:08:21;101615.06;;;9.97;100.00
32324;BME280;25666;44.350;9.222;2023-04-27T03:10:46;101608.53;;;10.02;100.00
32324;BME280;25666;44.350;9.222;2023-04-27T03:13:13;101615.25;;;10.01;100.00
32324;BME280;25666;44.350;9.222;2023-04-27T03:15:38;101612.28;;;10.06;100.00
32324;BME280;25666;44.350;9.222;2023-04-27T03:18:04;101615.72;;;10.03;100.00
32324;BME280;25666;44.350;9.222;2023-04-27T03:20:30;101616.53;;;9.95;100.00
32324;BME280;25666;44.350;9.222;2023-04-27T03:22:56;101617.69;;;9.94;100.00
32324;BME280;25666;44.350;9.222;2023-04-27T03:25:21;101619.50;;;9.98;100.00
32324;BME280;25666;44.350;9.222;2023-04-27T03:27:47;101614.88;;;9.85;100.00
32324;BME280;25666;44.350;9.222;2023-04-27T03:30:12;101620.94;;;9.87;100.00
32324;BME280;25666;44.350;9.222;2023-04-27T03:32:38;101628.13;;;9.80;100.00
32324;BME280;25666;44.350;9.222;2023-04-27T03:35:04;101625.00;;;9.81;100.00
32324;BME280;25666;44.350;9.222;2023-04-27T03:37:30;101628.31;;;9.83;100.00
32324;BME280;25666;44.350;9.222;2023-04-27T03:39:55;101637.13;;;9.77;100.00
32324;BME280;25666;44.350;9.222;2023-04-27T03:42:21;101640.84;;;9.72;100.00
32324;BME280;25666;44.350;9.222;2023-04-27T03:44:47;101631.69;;;9.72;100.00
32324;BME280;25666;44.350;9.222;2023-04-27T03:47:12;101638.06;;;9.63;100.00
32324;BME280;25666;44.350;9.222;2023-04-27T03:49:39;101640.38;;;9.70;100.00
32324;BME280;25666;44.350;9.222;2023-04-27T03:52:05;101643.50;;;9.77;100.00
32324;BME280;25666;44.350;9.222;2023-04-27T03:54:33;101641.50;;;9.69;100.00
32324;BME280;25666;44.350;9.222;2023-04-27T03:56:58;101642.31;;;9.61;100.00
32324;BME280;25666;44.350;9.222;2023-04-27T03:59:24;101648.97;;;9.51;100.00
32324;BME280;25666;44.350;9.222;2023-04-27T04:01:50;101648.25;;;9.37;100.00
32324;BME280;25666;44.350;9.222;2023-04-27T04:04:16;101653.88;;;9.46;100.00
32324;BME280;25666;44.350;9.222;2023-04-27T04:06:41;101657.81;;;9.53;100.00
32324;BME280;25666;44.350;9.222;2023-04-27T04:09:07;101662.19;;;9.46;100.00
32324;BME280;25666;44.350;9.222;2023-04-27T04:11:33;101662.88;;;9.51;100.00
32324;BME280;25666;44.350;9.222;2023-04-27T04:14:00;101665.66;;;9.51;100.00
32324;BME280;25666;44.350;9.222;2023-04-27T04:16:25;101665.38;;;9.61;100.00
32324;BME280;25666;44.350;9.222;2023-04-27T04:18:51;101667.88;;;9.80;100.00
32324;BME280;25666;44.350;9.222;2023-04-27T04:21:17;101663.63;;;9.83;100.00
32324;BME280;25666;44.350;9.222;2023-04-27T04:23:42;101666.25;;;9.79;100.00
32324;BME280;25666;44.350;9.222;2023-04-27T04:26:08;101670.28;;;9.64;100.00
32324;BME280;25666;44.350;9.222;2023-04-27T04:28:34;101669.28;;;9.60;100.00
32324;BME280;25666;44.350;9.222;2023-04-27T04:31:00;101667.19;;;9.75;100.00
32324;BME280;25666;44.350;9.222;2023-04-27T04:33:26;101667.19;;;9.75;100.00
32324;BME280;25666;44.350;9.222;2023-04-27T04:35:51;101681.59;;;9.77;100.00
32324;BME280;25666;44.350;9.222;2023-04-27T04:38:18;101680.44;;;9.78;100.00
32324;BME280;25666;44.350;9.222;2023-04-27T04:40:44;101671.16;;;9.82;100.00
32324;BME280;25666;44.350;9.222;2023-04-27T04:43:09;101683.41;;;9.81;100.00
32324;BME280;25666;44.350;9.222;2023-04-27T04:45:35;101684.06;;;9.87;100.00
32324;BME280;25666;44.350;9.222;2023-04-27T04:48:01;101685.09;;;9.99;100.00
32324;BME280;25666;44.350;9.222;2023-04-27T04:50:27;101684.28;;;9.99;100.00
32324;BME280;25666;44.350;9.222;2023-04-27T04:52:53;101681.25;;;10.17;100.00
32324;BME280;25666;44.350;9.222;2023-04-27T04:55:18;101689.59;;;10.26;100.00
32324;BME280;25666;44.350;9.222;2023-04-27T04:57:44;101690.44;;;10.27;100.00
32324;BME280;25666;44.350;9.222;2023-04-27T05:00:10;101700.25;;;10.24;100.00
32324;BME280;25666;44.350;9.222;2023-04-27T05:02:37;101698.28;;;10.42;100.00
32324;BME280;25666;44.350;9.222;2023-04-27T05:05:02;101704.06;;;10.71;100.00
32324;BME280;25666;44.350;9.222;2023-04-27T05:07:28;101703.22;;;10.79;100.00
32324;BME280;25666;44.350;9.222;2023-04-27T05:09:53;101713.03;;;10.85;100.00
32324;BME280;25666;44.350;9.222;2023-04-27T05:12:19;101710.91;;;10.99;100.00
32324;BME280;25666;44.350;9.222;2023-04-27T05:14:44;101707.63;;;10.97;100.00
32324;BME280;25666;44.350;9.222;2023-04-27T05:17:10;101706.63;;;11.10;100.00
32324;BME280;25666;44.350;9.222;2023-04-27T05:19:36;101704.47;;;11.16;100.00
32324;BME280;25666;44.350;9.222;2023-04-27T05:22:02;101709.41;;;11.65;100.00
32324;BME280;25666;44.350;9.222;2023-04-27T05:24:27;101699.69;;;13.33;100.00
32324;BME280;25666;44.350;9.222;2023-04-27T05:26:53;101690.84;;;14.53;100.00
32324;BME280;25666;44.350;9.222;2023-04-27T05:29:19;101686.47;;;15.38;100.00
32324;BME280;25666;44.350;9.222;2023-04-27T05:31:44;101696.25;;;16.23;100.00
32324;BME280;25666;44.350;9.222;2023-04-27T05:34:10;101698.13;;;17.27;100.00
32324;BME280;25666;44.350;9.222;2023-04-27T05:36:35;101695.19;;;17.84;100.00
32324;BME280;25666;44.350;9.222;2023-04-27T05:39:02;101699.94;;;18.55;100.00
32324;BME280;25666;44.350;9.222;2023-04-27T05:41:31;101687.84;;;20.02;100.00
32324;BME280;25666;44.350;9.222;2023-04-27T05:43:56;101697.28;;;19.69;100.00
32324;BME280;25666;44.350;9.222;2023-04-27T05:46:22;101695.53;;;19.58;100.00
32324;BME280;25666;44.350;9.222;2023-04-27T05:48:47;101695.47;;;21.46;100.00
32324;BME280;25666;44.350;9.222;2023-04-27T05:51:13;101698.56;;;20.99;100.00
32324;BME280;25666;44.350;9.222;2023-04-27T05:53:38;101704.81;;;21.54;93.35
32324;BME280;25666;44.350;9.222;2023-04-27T05:56:04;101703.19;;;21.42;93.94
32324;BME280;25666;44.350;9.222;2023-04-27T05:58:31;101700.75;;;21.48;99.57
32324;BME280;25666;44.350;9.222;2023-04-27T06:00:58;101707.31;;;21.98;98.05
32324;BME280;25666;44.350;9.222;2023-04-27T06:03:24;101700.72;;;22.75;91.56
32324;BME280;25666;44.350;9.222;2023-04-27T06:05:56;101697.97;;;24.03;75.38
32324;BME280;25666;44.350;9.222;2023-04-27T06:08:22;101702.31;;;24.96;68.10
32324;BME280;25666;44.350;9.222;2023-04-27T06:10:49;101701.03;;;25.31;61.91
32324;BME280;25666;44.350;9.222;2023-04-27T06:13:15;101698.38;;;24.86;64.67
32324;BME280;25666;44.350;9.222;2023-04-27T06:15:41;101695.34;;;24.63;65.39
32324;BME280;25666;44.350;9.222;2023-04-27T06:18:07;101696.97;;;25.85;57.10
32324;BME280;25666;44.350;9.222;2023-04-27T06:20:32;101702.63;;;26.35;54.38
32324;BME280;25666;44.350;9.222;2023-04-27T06:22:59;101699.84;;;27.14;51.54
32324;BME280;25666;44.350;9.222;2023-04-27T06:25:25;101698.91;;;27.21;48.97
32324;BME280;25666;44.350;9.222;2023-04-27T06:27:54;101709.44;;;26.41;48.84
32324;BME280;25666;44.350;9.222;2023-04-27T06:30:21;101703.03;;;26.80;49.40
32324;BME280;25666;44.350;9.222;2023-04-27T06:32:47;101708.19;;;26.66;46.85
32324;BME280;25666;44.350;9.222;2023-04-27T06:35:13;101711.94;;;26.39;45.87
32324;BME280;25666;44.350;9.222;2023-04-27T06:37:38;101706.28;;;26.79;44.34
32324;BME280;25666;44.350;9.222;2023-04-27T06:40:05;101708.09;;;26.49;45.18
32324;BME280;25666;44.350;9.222;2023-04-27T06:42:31;101709.16;;;27.90;43.88
32324;BME280;25666;44.350;9.222;2023-04-27T06:44:56;101712.00;;;26.79;44.07
32324;BME280;25666;44.350;9.222;2023-04-27T06:47:22;101710.75;;;27.75;41.63
32324;BME280;25666;44.350;9.222;2023-04-27T06:49:48;101710.13;;;28.77;39.86
32324;BME280;25666;44.350;9.222;2023-04-27T06:52:14;101715.94;;;28.44;37.59
32324;BME280;25666;44.350;9.222;2023-04-27T06:54:39;101711.88;;;29.15;38.18
32324;BME280;25666;44.350;9.222;2023-04-27T06:57:05;101711.00;;;30.19;35.63
32324;BME280;25666;44.350;9.222;2023-04-27T06:59:31;101707.88;;;30.26;35.56
32324;BME280;25666;44.350;9.222;2023-04-27T07:01:56;101713.59;;;30.73;34.13
32324;BME280;25666;44.350;9.222;2023-04-27T07:04:22;101705.72;;;31.92;31.41
32324;BME280;25666;44.350;9.222;2023-04-27T07:06:47;101709.72;;;31.94;30.84
32324;BME280;25666;44.350;9.222;2023-04-27T07:09:13;101701.63;;;32.11;31.14
32324;BME280;25666;44.350;9.222;2023-04-27T07:11:38;101701.13;;;33.30;30.07
32324;BME280;25666;44.350;9.222;2023-04-27T07:14:04;101708.72;;;33.19;29.29
32324;BME280;25666;44.350;9.222;2023-04-27T07:16:29;101702.78;;;32.31;28.56
32324;BME280;25666;44.350;9.222;2023-04-27T07:18:55;101699.38;;;33.33;28.68
32324;BME280;25666;44.350;9.222;2023-04-27T07:21:20;101698.59;;;34.07;26.40
32324;BME280;25666;44.350;9.222;2023-04-27T07:23:46;101686.06;;;35.11;25.95
32324;BME280;25666;44.350;9.222;2023-04-27T07:26:11;101685.81;;;35.73;25.00
32324;BME280;25666;44.350;9.222;2023-04-27T07:28:37;101692.75;;;35.95;24.78
32324;BME280;25666;44.350;9.222;2023-04-27T07:31:04;101688.84;;;35.20;24.83
32324;BME280;25666;44.350;9.222;2023-04-27T07:33:31;101689.13;;;34.07;26.06
32324;BME280;25666;44.350;9.222;2023-04-27T07:35:56;101682.59;;;33.13;27.16
32324;BME280;25666;44.350;9.222;2023-04-27T07:38:22;101692.44;;;31.94;29.54
32324;BME280;25666;44.350;9.222;2023-04-27T07:40:47;101684.81;;;31.60;29.68
32324;BME280;25666;44.350;9.222;2023-04-27T07:43:14;101687.56;;;31.73;29.47
32324;BME280;25666;44.350;9.222;2023-04-27T07:45:40;101693.13;;;29.52;32.42
32324;BME280;25666;44.350;9.222;2023-04-27T07:48:06;101688.44;;;30.43;32.48
32324;BME280;25666;44.350;9.222;2023-04-27T07:50:32;101701.06;;;27.52;35.80
32324;BME280;25666;44.350;9.222;2023-04-27T07:52:58;101702.69;;;24.98;42.82
32324;BME280;25666;44.350;9.222;2023-04-27T07:55:24;101707.50;;;23.75;48.62
32324;BME280;25666;44.350;9.222;2023-04-27T07:57:51;101709.66;;;22.56;54.26
32324;BME280;25666;44.350;9.222;2023-04-27T08:00:17;101699.22;;;21.93;61.31
32324;BME280;25666;44.350;9.222;2023-04-27T08:02:43;101716.50;;;21.34;63.63
32324;BME280;25666;44.350;9.222;2023-04-27T08:05:08;101722.38;;;20.91;69.56
32324;BME280;25666;44.350;9.222;2023-04-27T08:07:34;101717.22;;;20.35;76.73
32324;BME280;25666;44.350;9.222;2023-04-27T08:10:00;101714.25;;;20.20;85.39
32324;BME280;25666;44.350;9.222;2023-04-27T08:12:25;101716.97;;;20.06;94.37
32324;BME280;25666;44.350;9.222;2023-04-27T08:14:51;101726.88;;;19.46;100.00
32324;BME280;25666;44.350;9.222;2023-04-27T08:17:18;101733.81;;;19.52;100.00
32324;BME280;25666;44.350;9.222;2023-04-27T08:19:43;101739.41;;;19.15;100.00
32324;BME280;25666;44.350;9.222;2023-04-27T08:22:09;101742.47;;;19.03;100.00
32324;BME280;25666;44.350;9.222;2023-04-27T08:24:34;101744.34;;;18.62;100.00
32324;BME280;25666;44.350;9.222;2023-04-27T08:27:00;101743.47;;;18.58;100.00
32324;BME280;25666;44.350;9.222;2023-04-27T08:29:27;101749.31;;;18.72;100.00
32324;BME280;25666;44.350;9.222;2023-04-27T08:31:53;101753.13;;;18.57;100.00
32324;BME280;25666;44.350;9.222;2023-04-27T08:34:19;101742.16;;;18.52;100.00
32324;BME280;25666;44.350;9.222;2023-04-27T08:36:44;101755.69;;;18.43;100.00
32324;BME280;25666;44.350;9.222;2023-04-27T08:39:10;101751.44;;;18.26;100.00
32324;BME280;25666;44.350;9.222;2023-04-27T08:41:35;101756.41;;;18.10;100.00
32324;BME280;25666;44.350;9.222;2023-04-27T08:44:01;101761.50;;;18.04;100.00
32324;BME280;25666;44.350;9.222;2023-04-27T08:46:30;101758.47;;;17.90;100.00
32324;BME280;25666;44.350;9.222;2023-04-27T08:48:56;101756.75;;;17.86;100.00
32324;BME280;25666;44.350;9.222;2023-04-27T08:51:22;101755.38;;;17.99;100.00
32324;BME280;25666;44.350;9.222;2023-04-27T08:53:55;101760.25;;;18.02;100.00
32324;BME280;25666;44.350;9.222;2023-04-27T08:56:22;101759.56;;;17.86;100.00
32324;BME280;25666;44.350;9.222;2023-04-27T08:58:49;101762.19;;;18.20;100.00
32324;BME280;25666;44.350;9.222;2023-04-27T09:01:15;101761.44;;;18.24;100.00
32324;BME280;25666;44.350;9.222;2023-04-27T09:03:41;101766.00;;;18.32;100.00
32324;BME280;25666;44.350;9.222;2023-04-27T09:06:07;101762.69;;;18.26;100.00
32324;BME280;25666;44.350;9.222;2023-04-27T09:08:47;101765.47;;;18.23;100.00
32324;BME280;25666;44.350;9.222;2023-04-27T09:11:15;101763.19;;;18.32;100.00
32324;BME280;25666;44.350;9.222;2023-04-27T09:13:42;101767.25;;;18.34;100.00
32324;BME280;25666;44.350;9.222;2023-04-27T09:16:12;101763.13;;;18.51;100.00
32324;BME280;25666;44.350;9.222;2023-04-27T09:18:42;101762.44;;;18.35;100.00
32324;BME280;25666;44.350;9.222;2023-04-27T09:21:08;101764.91;;;18.40;100.00
32324;BME280;25666;44.350;9.222;2023-04-27T09:23:35;101775.09;;;18.22;100.00
32324;BME280;25666;44.350;9.222;2023-04-27T09:26:05;101777.97;;;18.25;100.00
32324;BME280;25666;44.350;9.222;2023-04-27T09:28:39;101772.31;;;18.48;100.00
32324;BME280;25666;44.350;9.222;2023-04-27T09:31:05;101775.66;;;18.08;100.00
32324;BME280;25666;44.350;9.222;2023-04-27T09:33:34;101785.88;;;17.93;100.00
32324;BME280;25666;44.350;9.222;2023-04-27T09:36:04;101791.56;;;17.97;100.00
32324;BME280;25666;44.350;9.222;2023-04-27T09:38:30;101772.59;;;18.16;100.00
32324;BME280;25666;44.350;9.222;2023-04-27T09:40:56;101777.34;;;17.90;100.00
32324;BME280;25666;44.350;9.222;2023-04-27T09:43:22;101779.34;;;17.89;100.00
32324;BME280;25666;44.350;9.222;2023-04-27T09:45:49;101786.09;;;18.07;100.00
32324;BME280;25666;44.350;9.222;2023-04-27T09:48:16;101789.66;;;18.01;100.00
32324;BME280;25666;44.350;9.222;2023-04-27T09:50:43;101782.66;;;18.17;100.00
32324;BME280;25666;44.350;9.222;2023-04-27T09:53:11;101784.44;;;18.03;100.00
32324;BME280;25666;44.350;9.222;2023-04-27T09:55:39;101782.44;;;17.81;100.00
32324;BME280;25666;44.350;9.222;2023-04-27T10:03:50;101777.84;;;18.18;100.00
32324;BME280;25666;44.350;9.222;2023-04-27T10:08:59;101783.88;;;17.94;100.00
32324;BME280;25666;44.350;9.222;2023-04-27T10:11:42;101781.13;;;17.97;100.00
32324;BME280;25666;44.350;9.222;2023-04-27T10:14:16;101783.63;;;18.25;100.00
32324;BME280;25666;44.350;9.222;2023-04-27T10:16:54;101776.19;;;18.40;100.00
32324;BME280;25666;44.350;9.222;2023-04-27T10:19:21;101766.38;;;18.07;100.00
32324;BME280;25666;44.350;9.222;2023-04-27T10:21:58;101762.19;;;18.20;100.00
32324;BME280;25666;44.350;9.222;2023-04-27T10:24:40;101759.31;;;18.17;100.00
32324;BME280;25666;44.350;9.222;2023-04-27T10:27:14;101776.06;;;18.33;100.00
32324;BME280;25666;44.350;9.222;2023-04-27T10:29:41;101768.50;;;18.37;100.00
32324;BME280;25666;44.350;9.222;2023-04-27T10:32:21;101770.06;;;18.34;100.00
32324;BME280;25666;44.350;9.222;2023-04-27T10:35:00;101770.47;;;18.10;100.00
32324;BME280;25666;44.350;9.222;2023-04-27T10:37:37;101773.09;;;18.22;100.00
32324;BME280;25666;44.350;9.222;2023-04-27T10:40:03;101766.84;;;18.09;100.00
32324;BME280;25666;44.350;9.222;2023-04-27T10:42:31;101764.56;;;18.18;100.00
32324;BME280;25666;44.350;9.222;2023-04-27T10:44:57;101761.47;;;18.01;100.00
32324;BME280;25666;44.350;9.222;2023-04-27T10:47:42;101763.53;;;18.04;100.00
32324;BME280;25666;44.350;9.222;2023-04-27T10:50:10;101754.56;;;17.98;100.00
32324;BME280;25666;44.350;9.222;2023-04-27T10:52:43;101769.47;;;17.99;100.00
32324;BME280;25666;44.350;9.222;2023-04-27T10:55:15;101770.09;;;17.89;100.00
32324;BME280;25666;44.350;9.222;2023-04-27T10:57:51;101776.66;;;17.74;100.00
32324;BME280;25666;44.350;9.222;2023-04-27T11:00:30;101775.41;;;17.71;100.00
32324;BME280;25666;44.350;9.222;2023-04-27T11:03:08;101782.00;;;17.79;100.00
32324;BME280;25666;44.350;9.222;2023-04-27T11:05:34;101773.09;;;17.77;100.00
32324;BME280;25666;44.350;9.222;2023-04-27T11:08:12;101777.19;;;17.79;100.00
32324;BME280;25666;44.350;9.222;2023-04-27T11:10:42;101778.09;;;17.87;100.00
32324;BME280;25666;44.350;9.222;2023-04-27T11:13:13;101783.28;;;17.62;100.00
32324;BME280;25666;44.350;9.222;2023-04-27T11:15:48;101777.47;;;17.74;100.00
32324;BME280;25666;44.350;9.222;2023-04-27T11:18:16;101787.63;;;17.79;100.00
32324;BME280;25666;44.350;9.222;2023-04-27T11:20:48;101787.41;;;17.68;100.00
32324;BME280;25666;44.350;9.222;2023-04-27T11:23:26;101789.13;;;17.73;100.00
32324;BME280;25666;44.350;9.222;2023-04-27T11:25:56;101792.69;;;17.70;100.00
32324;BME280;25666;44.350;9.222;2023-04-27T11:28:22;101793.94;;;17.72;100.00
32324;BME280;25666;44.350;9.222;2023-04-27T11:30:56;101794.53;;;17.62;100.00
32324;BME280;25666;44.350;9.222;2023-04-27T11:33:21;101799.56;;;17.72;100.00
32324;BME280;25666;44.350;9.222;2023-04-27T11:35:47;101789.88;;;17.70;100.00
32324;BME280;25666;44.350;9.222;2023-04-27T11:38:17;101793.94;;;17.72;100.00
32324;BME280;25666;44.350;9.222;2023-04-27T11:40:46;101798.38;;;17.73;100.00
32324;BME280;25666;44.350;9.222;2023-04-27T11:43:12;101798.44;;;17.77;100.00
32324;BME280;25666;44.350;9.222;2023-04-27T11:45:41;101790.97;;;17.65;100.00
32324;BME280;25666;44.350;9.222;2023-04-27T11:48:15;101793.88;;;17.69;100.00
32324;BME280;25666;44.350;9.222;2023-04-27T11:50:48;101792.16;;;17.64;100.00
32324;BME280;25666;44.350;9.222;2023-04-27T11:53:14;101787.09;;;17.73;100.00
32324;BME280;25666;44.350;9.222;2023-04-27T11:55:40;101785.34;;;17.65;100.00
32324;BME280;25666;44.350;9.222;2023-04-27T11:58:12;101784.91;;;17.86;100.00
32324;BME280;25666;44.350;9.222;2023-04-27T12:00:39;101793.34;;;17.82;100.00
32324;BME280;25666;44.350;9.222;2023-04-27T12:03:05;101784.03;;;18.04;100.00
32324;BME280;25666;44.350;9.222;2023-04-27T12:05:30;101775.44;;;17.94;100.00
32324;BME280;25666;44.350;9.222;2023-04-27T12:07:56;101778.13;;;18.09;100.00
32324;BME280;25666;44.350;9.222;2023-04-27T12:10:22;101766.63;;;18.22;100.00
32324;BME280;25666;44.350;9.222;2023-04-27T12:12:48;101765.06;;;18.24;100.00
32324;BME280;25666;44.350;9.222;2023-04-27T12:15:14;101764.25;;;18.24;100.00
32324;BME280;25666;44.350;9.222;2023-04-27T12:17:39;101775.81;;;18.41;100.00
32324;BME280;25666;44.350;9.222;2023-04-27T12:20:06;101780.47;;;18.53;100.00
32324;BME280;25666;44.350;9.222;2023-04-27T12:22:31;101781.94;;;18.47;100.00
32324;BME280;25666;44.350;9.222;2023-04-27T12:24:57;101776.06;;;18.55;100.00
32324;BME280;25666;44.350;9.222;2023-04-27T12:27:23;101772.47;;;18.58;100.00
32324;BME280;25666;44.350;9.222;2023-04-27T12:29:48;101776.41;;;18.50;100.00
32324;BME280;25666;44.350;9.222;2023-04-27T12:32:13;101784.91;;;18.54;100.00
32324;BME280;25666;44.350;9.222;2023-04-27T12:34:39;101790.97;;;18.56;100.00
32324;BME280;25666;44.350;9.222;2023-04-27T12:37:05;101791.03;;;18.37;100.00
32324;BME280;25666;44.350;9.222;2023-04-27T12:39:31;101792.19;;;18.32;100.00
32324;BME280;25666;44.350;9.222;2023-04-27T12:41:56;101799.44;;;18.33;100.00
32324;BME280;25666;44.350;9.222;2023-04-27T12:44:26;101794.75;;;18.18;100.00
32324;BME280;25666;44.350;9.222;2023-04-27T12:46:51;101804.28;;;18.10;100.00
32324;BME280;25666;44.350;9.222;2023-04-27T12:49:17;101796.06;;;18.24;100.00